UPSVAC Airport Information Service

Cologne Bonn Airport (300-399)

ICAO: EDDK Country: Germany
Latitude: 50.866 Longitude: 7.143
Latest Arrival : UPS1362 (EPWA-EDDK) Latest Departure : UPS3748 (EDDK-EFHK)


WX CaptureLIVE
Data provided by noaa.gov | Fetched at 14:20:21

METAR : EDDK 141350Z 06009KT 350V150 9999 -SHGSRA FEW013 BKN029CB 05/M01 Q1030 NOSIG

TAF : EDDK 141100Z 1412/1518 34009KT 9999 SCT030 PROB30 TEMPO 1413/1417 SHRAGS BKN025CB BECMG 1419/1421 VRB03KT PROB30 TEMPO 1505/1507 4000 BR BECMG 1508/1510 03008KT


Runway Data for EDDK
Data provided by openaviationdata.com

Runway ID Mag Var Hdg Length Elevation Surface ILS Freq ILS Id ILS Slope
7 0 64° 8050 ft 254 ft Concrete -- -- --
14L 0 137° 12496 ft 254 ft Asphalt 110.9 IKES 3
14R 0 137° 6101 ft 254 ft Concrete -- -- --
25 0 244° 8050 ft 254 ft Concrete 109.1 IKOW 3
32L 0 317° 6101 ft 254 ft Concrete -- -- --
32R 0 317° 12496 ft 254 ft Asphalt 109.7 IKEN 3

Cologne Bonn Airport (300-399), Germany
Use only for reference purposes



Not for navigational purposes.